Golden, North Carolina
Current Conditions -  °F | °C
As of 4:35 AM on Monday 22 Dec 2014 (Local Time) from KFQD Reporting Station
Drizzle Drizzle  
Wind Chill: 37°   Ceiling: 2500
Heat Index: 41°   Visibility: 4mi
Dew Point: 39°   Wind: 7mph
Humidity: 93%   Direction: 30°NNE
Pressure: 30.11"   Gusts: NA
Location:  35.4977°N, 81.7958°W
Report Text: KFQD 220935Z AUTO 03006KT 4SM -DZ SCT008 OVC025 05/04 A3011 RMK AO2 T00510041
Loading
Personal Weather Stations






























Interactive Weather Map New forecast layout! Learn more

10-Day Weather Forecast

Advertisements
Track Severe Weather on mobile